createdAt,value
2023-03-04T00:02:13.833Z,3.78
2023-03-04T00:04:40.310Z,3.90
2023-03-04T00:07:06.882Z,4.50
2023-03-04T00:09:33.342Z,5.03
2023-03-04T00:11:59.751Z,5.18
2023-03-04T00:14:27.393Z,4.20
2023-03-04T00:16:55.335Z,4.00
2023-03-04T00:19:21.887Z,4.13
2023-03-04T00:21:48.481Z,4.18
2023-03-04T00:24:14.943Z,4.75
2023-03-04T00:26:41.377Z,4.75
2023-03-04T00:29:08.843Z,4.70
2023-03-04T00:31:35.368Z,4.75
2023-03-04T00:34:01.830Z,4.85
2023-03-04T00:36:29.329Z,4.97
2023-03-04T00:38:55.750Z,4.38
2023-03-04T00:41:22.246Z,4.28
2023-03-04T00:43:48.730Z,4.38
2023-03-04T00:46:15.191Z,4.40
2023-03-04T00:48:41.709Z,4.93
2023-03-04T00:51:08.320Z,4.53
2023-03-04T00:53:34.854Z,4.45
2023-03-04T00:56:01.392Z,4.75
2023-03-04T00:58:27.940Z,4.03
2023-03-04T01:00:54.500Z,5.78
2023-03-04T01:03:21.022Z,4.43
2023-03-04T01:05:47.468Z,4.82
2023-03-04T01:08:13.932Z,4.57
2023-03-04T01:10:40.437Z,4.30
2023-03-04T01:13:06.977Z,3.83
2023-03-04T01:15:33.641Z,5.53
2023-03-04T01:18:00.181Z,4.63
2023-03-04T01:20:26.657Z,4.15
2023-03-04T01:22:53.131Z,4.88
2023-03-04T01:25:19.713Z,4.97
2023-03-04T01:27:46.128Z,5.18
2023-03-04T01:30:13.085Z,5.18
2023-03-04T01:32:39.536Z,5.88
2023-03-04T01:35:06.332Z,4.90
2023-03-04T01:37:32.819Z,4.50
2023-03-04T01:39:59.245Z,5.53
2023-03-04T01:42:29.993Z,5.80
2023-03-04T01:44:56.415Z,4.80
2023-03-04T01:47:27.767Z,4.85
2023-03-04T01:49:57.078Z,6.05
2023-03-04T01:52:24.687Z,5.88
2023-03-04T01:54:51.492Z,4.97
2023-03-04T01:57:23.494Z,5.18
2023-03-04T02:00:15.489Z,5.07
2023-03-04T02:02:42.019Z,4.88
2023-03-04T02:05:08.582Z,5.35
2023-03-04T02:07:35.104Z,8.05
2023-03-04T02:10:01.850Z,6.40
2023-03-04T02:12:28.281Z,7.55
2023-03-04T02:14:54.718Z,6.03
2023-03-04T02:17:26.213Z,6.00
2023-03-04T02:20:15.262Z,5.88
2023-03-04T02:22:53.885Z,5.35
2023-03-04T02:25:27.202Z,5.60
2023-03-04T02:27:53.697Z,6.93
2023-03-04T02:30:23.920Z,6.07
2023-03-04T02:32:50.390Z,4.93
2023-03-04T02:35:18.452Z,5.57
2023-03-04T02:37:44.989Z,5.85
2023-03-04T02:40:16.825Z,5.28
2023-03-04T02:42:44.968Z,4.88
2023-03-04T02:45:32.925Z,5.43
2023-03-04T02:47:59.337Z,5.35
2023-03-04T02:50:29.581Z,5.47
2023-03-04T02:52:56.037Z,6.15
2023-03-04T02:55:22.466Z,5.75
2023-03-04T02:57:48.945Z,6.32
2023-03-04T03:00:16.124Z,7.07
2023-03-04T03:02:42.521Z,5.07
2023-03-04T03:05:09.019Z,5.22
2023-03-04T03:07:35.483Z,5.65
2023-03-04T03:10:01.956Z,5.72
2023-03-04T03:12:28.431Z,5.75
2023-03-04T03:14:54.774Z,5.80
2023-03-04T03:17:21.144Z,6.35
2023-03-04T03:19:47.539Z,5.78
2023-03-04T03:22:14.054Z,5.03
2023-03-04T03:24:40.443Z,5.95
2023-03-04T03:27:06.791Z,6.93
2023-03-04T03:29:33.245Z,5.05
2023-03-04T03:31:59.769Z,6.03
2023-03-04T03:34:26.408Z,6.22
2023-03-04T03:36:52.862Z,6.13
2023-03-04T03:39:20.030Z,6.10
2023-03-04T03:41:46.384Z,5.57
2023-03-04T03:44:12.786Z,4.55
2023-03-04T03:46:39.145Z,5.47
2023-03-04T03:49:05.684Z,4.90
2023-03-04T03:51:32.125Z,3.97
2023-03-04T03:53:58.545Z,4.30
2023-03-04T03:56:24.997Z,4.35
2023-03-04T03:58:51.397Z,4.05
2023-03-04T04:01:17.882Z,4.43
2023-03-04T04:03:44.229Z,4.82
2023-03-04T04:06:10.596Z,5.75
2023-03-04T04:08:36.968Z,5.72
2023-03-04T04:11:04.902Z,5.18
2023-03-04T04:13:31.286Z,6.43
2023-03-04T04:15:58.024Z,6.95
2023-03-04T04:18:25.761Z,6.50
2023-03-04T04:20:53.802Z,5.70
2023-03-04T04:23:20.551Z,6.15
2023-03-04T04:25:47.072Z,6.68
2023-03-04T04:28:13.583Z,5.13
2023-03-04T04:30:40.368Z,7.20
2023-03-04T04:33:06.751Z,6.93
2023-03-04T04:35:35.283Z,7.15
2023-03-04T04:38:01.614Z,6.65
2023-03-04T04:40:28.015Z,6.45
2023-03-04T04:42:54.664Z,7.05
2023-03-04T04:45:21.189Z,6.95
2023-03-04T04:47:47.558Z,6.28
2023-03-04T04:50:13.927Z,6.15
2023-03-04T04:52:40.309Z,7.13
2023-03-04T04:55:06.964Z,7.03
2023-03-04T04:57:34.293Z,8.63
2023-03-04T05:00:00.657Z,7.45
2023-03-04T05:02:27.013Z,6.80
2023-03-04T05:04:53.448Z,8.70
2023-03-04T05:07:19.840Z,8.48
2023-03-04T05:09:46.185Z,7.82
2023-03-04T05:12:13.645Z,6.50
2023-03-04T05:14:40.012Z,7.40
2023-03-04T05:17:06.421Z,6.80
2023-03-04T05:19:32.795Z,7.15
2023-03-04T05:21:59.240Z,7.43
2023-03-04T05:24:25.641Z,7.57
2023-03-04T05:26:52.128Z,6.50
2023-03-04T05:29:18.466Z,7.25
2023-03-04T05:31:44.823Z,6.25
2023-03-04T05:34:11.433Z,7.68
2023-03-04T05:36:37.981Z,6.47
2023-03-04T05:39:04.386Z,7.22
2023-03-04T05:41:30.755Z,9.30
2023-03-04T05:43:57.370Z,7.30
2023-03-04T05:46:25.512Z,7.13
2023-03-04T05:48:53.759Z,7.55
2023-03-04T05:51:21.010Z,7.00
2023-03-04T05:53:47.772Z,6.93
2023-03-04T05:56:17.541Z,7.15
2023-03-04T05:58:44.890Z,7.30
2023-03-04T06:01:12.301Z,7.60
2023-03-04T06:03:38.908Z,7.60
2023-03-04T06:06:07.190Z,7.53
2023-03-04T06:08:33.594Z,7.68
2023-03-04T06:11:00.406Z,8.05
2023-03-04T06:13:27.053Z,7.80
2023-03-04T06:15:55.501Z,8.77
2023-03-04T06:18:23.124Z,6.93
2023-03-04T06:20:50.059Z,6.30
2023-03-04T06:23:16.584Z,7.07
2023-03-04T06:25:43.140Z,6.93
2023-03-04T06:28:09.506Z,6.57
2023-03-04T06:30:35.980Z,7.53
2023-03-04T06:33:02.387Z,6.68
2023-03-04T06:35:28.772Z,7.30
2023-03-04T06:37:55.210Z,7.20
2023-03-04T06:40:21.673Z,6.63
2023-03-04T06:42:48.047Z,8.20
2023-03-04T06:45:14.497Z,8.20
2023-03-04T06:47:40.884Z,7.30
2023-03-04T06:50:07.752Z,7.28
2023-03-04T06:52:34.151Z,6.50
2023-03-04T06:55:00.939Z,8.38
2023-03-04T06:57:27.368Z,7.47
2023-03-04T06:59:53.798Z,8.20
2023-03-04T07:02:20.217Z,7.68
2023-03-04T07:04:46.718Z,7.68
2023-03-04T07:07:13.237Z,8.27
2023-03-04T07:09:39.685Z,9.07
2023-03-04T07:12:06.252Z,8.05
2023-03-04T07:14:32.863Z,7.57
2023-03-04T07:16:59.290Z,7.75
2023-03-04T07:19:25.727Z,7.55
2023-03-04T07:21:52.141Z,7.88
2023-03-04T07:24:18.642Z,7.38
2023-03-04T07:26:45.013Z,7.10
2023-03-04T07:29:12.638Z,6.28
2023-03-04T07:31:39.155Z,7.30
2023-03-04T07:34:08.330Z,7.38
2023-03-04T07:36:36.469Z,7.50
2023-03-04T07:39:03.938Z,7.43
2023-03-04T07:41:31.060Z,6.75
2023-03-04T07:43:58.722Z,7.00
2023-03-04T07:46:25.803Z,5.88
2023-03-04T07:48:52.830Z,5.82
2023-03-04T07:51:21.391Z,6.45
2023-03-04T07:53:50.807Z,7.40
2023-03-04T07:56:23.077Z,7.15
2023-03-04T07:58:50.283Z,7.60
2023-03-04T08:01:22.536Z,6.97
2023-03-04T08:03:49.114Z,7.53
2023-03-04T08:06:16.991Z,7.68
2023-03-04T08:08:43.828Z,7.85
2023-03-04T08:11:16.756Z,7.80
2023-03-04T08:13:43.758Z,6.97
2023-03-04T08:16:16.345Z,6.28
2023-03-04T08:18:45.478Z,6.32
2023-03-04T08:21:13.259Z,6.30
2023-03-04T08:23:42.318Z,5.80
2023-03-04T08:26:11.580Z,5.55
2023-03-04T08:28:38.716Z,4.80
2023-03-04T08:31:05.428Z,5.20
2023-03-04T08:33:33.276Z,6.45
2023-03-04T08:36:00.061Z,6.32
2023-03-04T08:38:26.627Z,6.40
2023-03-04T08:40:54.669Z,6.32
2023-03-04T08:43:21.883Z,6.10
2023-03-04T08:45:48.913Z,6.25
2023-03-04T08:48:16.467Z,6.03
2023-03-04T08:50:45.057Z,5.40
2023-03-04T08:53:12.499Z,5.85
2023-03-04T08:55:40.267Z,5.15
2023-03-04T08:58:07.413Z,5.50
2023-03-04T09:00:35.897Z,4.65
2023-03-04T09:03:03.873Z,7.95
2023-03-04T09:05:32.241Z,4.78
2023-03-04T09:07:58.775Z,5.72
2023-03-04T09:10:25.586Z,4.85
2023-03-04T09:12:53.181Z,5.72
2023-03-04T09:15:20.057Z,4.60
2023-03-04T09:17:46.493Z,5.13
2023-03-04T09:20:13.570Z,5.93
2023-03-04T09:22:41.118Z,6.35
2023-03-04T09:25:12.883Z,5.68
2023-03-04T09:27:39.784Z,5.53
2023-03-04T09:30:07.540Z,4.90
2023-03-04T09:32:34.022Z,4.70
2023-03-04T09:35:00.491Z,4.50
2023-03-04T09:37:26.905Z,4.55
2023-03-04T09:39:53.422Z,5.28
2023-03-04T09:42:27.061Z,5.88
2023-03-04T09:44:55.623Z,4.32
2023-03-04T09:47:23.920Z,6.38
2023-03-04T09:50:02.534Z,5.28
2023-03-04T09:52:51.698Z,4.88
2023-03-04T09:55:28.161Z,5.35
2023-03-04T09:58:04.842Z,5.70
2023-03-04T10:00:44.771Z,6.32
2023-03-04T10:03:17.092Z,5.20
2023-03-04T10:05:57.917Z,4.97
2023-03-04T10:08:49.958Z,5.10
2023-03-04T10:11:50.497Z,8.10
2023-03-04T10:14:35.235Z,5.32
2023-03-04T10:17:07.660Z,5.10
2023-03-04T10:19:44.056Z,4.78
2023-03-04T10:22:28.742Z,5.65
2023-03-04T10:24:57.728Z,5.57
2023-03-04T10:27:24.798Z,7.13
2023-03-04T10:29:51.924Z,6.40
2023-03-04T10:32:20.682Z,5.57
2023-03-04T10:34:47.754Z,6.47
2023-03-04T10:37:14.515Z,5.78
2023-03-04T10:39:46.236Z,5.60
2023-03-04T10:42:15.765Z,5.82
2023-03-04T10:44:55.205Z,7.00
2023-03-04T10:47:32.697Z,5.85
2023-03-04T10:50:01.485Z,6.07
2023-03-04T10:52:30.499Z,6.20
2023-03-04T10:55:01.879Z,5.70
2023-03-04T10:57:44.748Z,6.72
2023-03-04T11:03:30.818Z,5.63
2023-03-04T11:06:20.517Z,6.50
2023-03-04T11:08:55.448Z,6.28
2023-03-04T11:11:37.701Z,6.47
2023-03-04T11:14:31.555Z,6.60
2023-03-04T11:17:00.969Z,6.05
2023-03-04T11:19:35.429Z,8.05
2023-03-04T11:22:03.191Z,7.60
2023-03-04T11:24:32.126Z,6.35
2023-03-04T11:27:01.376Z,7.97
2023-03-04T11:29:38.431Z,6.57
2023-03-04T11:32:18.635Z,6.57
2023-03-04T11:35:12.755Z,7.95
2023-03-04T11:37:59.470Z,7.43
2023-03-04T11:40:36.600Z,6.68
2023-03-04T11:46:02.873Z,6.60
2023-03-04T11:48:45.878Z,7.18
2023-03-04T11:51:56.502Z,7.68
2023-03-04T11:54:32.357Z,6.70
2023-03-04T11:57:31.995Z,8.70
2023-03-04T12:00:20.321Z,8.30
2023-03-04T12:03:13.149Z,8.63
2023-03-04T12:05:54.725Z,7.65
2023-03-04T12:08:47.881Z,7.70
2023-03-04T12:11:20.448Z,7.00
2023-03-04T12:14:12.285Z,7.97
2023-03-04T12:17:13.004Z,8.07
2023-03-04T12:19:59.637Z,7.32
2023-03-04T12:22:35.560Z,9.80
2023-03-04T12:25:29.130Z,7.88
2023-03-04T12:28:23.504Z,8.55
2023-03-04T12:31:02.540Z,8.77
2023-03-04T12:33:42.541Z,8.15
2023-03-04T12:36:35.514Z,8.32
2023-03-04T12:39:32.621Z,8.32
2023-03-04T12:42:04.988Z,8.05
2023-03-04T12:44:38.025Z,8.35
2023-03-04T12:47:14.433Z,8.85
2023-03-04T12:49:43.898Z,9.63
2023-03-04T12:52:48.296Z,12.48
2023-03-04T12:55:19.005Z,8.63
2023-03-04T12:57:46.173Z,9.07
2023-03-04T13:01:09.551Z,7.80
2023-03-04T13:03:52.783Z,7.97
2023-03-04T13:06:31.536Z,7.43
2023-03-04T13:09:26.796Z,6.90
2023-03-04T13:12:02.100Z,8.05
2023-03-04T13:14:30.580Z,8.70
2023-03-04T13:17:01.665Z,7.57
2023-03-04T13:19:50.875Z,7.53
2023-03-04T13:22:32.744Z,7.38
2023-03-04T13:25:20.228Z,7.97
2023-03-04T13:27:49.953Z,6.25
2023-03-04T13:30:38.230Z,8.13
2023-03-04T13:33:16.590Z,7.28
2023-03-04T13:35:49.094Z,9.02
2023-03-04T13:38:23.413Z,7.90
2023-03-04T13:41:08.994Z,8.57
2023-03-04T13:43:41.470Z,7.65
2023-03-04T13:46:20.308Z,7.22
2023-03-04T13:48:49.652Z,6.75
2023-03-04T13:51:34.848Z,8.43
2023-03-04T13:54:02.823Z,8.50
2023-03-04T13:56:38.125Z,7.88
2023-03-04T13:59:07.791Z,7.15
2023-03-04T14:01:41.528Z,8.45
2023-03-04T14:04:18.832Z,7.38
2023-03-04T14:06:49.830Z,7.40
2023-03-04T14:09:23.661Z,7.90
2023-03-04T14:11:56.998Z,7.57
2023-03-04T14:14:48.921Z,8.00
2023-03-04T14:17:29.672Z,9.35
2023-03-04T14:19:56.126Z,8.60
2023-03-04T14:22:25.694Z,7.35
2023-03-04T14:25:05.841Z,7.93
2023-03-04T14:27:36.095Z,7.97
2023-03-04T14:30:06.197Z,7.75
2023-03-04T14:32:33.267Z,7.95
2023-03-04T14:35:06.897Z,8.02
2023-03-04T14:38:04.676Z,7.03
2023-03-04T14:40:40.837Z,8.82
2023-03-04T14:43:15.806Z,6.57
2023-03-04T14:45:44.819Z,7.07
2023-03-04T14:48:27.870Z,8.82
2023-03-04T14:50:56.573Z,7.97
2023-03-04T14:53:25.628Z,8.50
2023-03-04T14:56:01.091Z,7.10
2023-03-04T14:58:30.874Z,11.20
2023-03-04T15:01:18.805Z,6.88
2023-03-04T15:04:19.534Z,7.25
2023-03-04T15:06:54.929Z,7.80
2023-03-04T15:09:25.297Z,7.90
2023-03-04T15:12:01.907Z,7.28
2023-03-04T15:14:46.769Z,7.13
2023-03-04T15:17:37.685Z,7.32
2023-03-04T15:20:20.965Z,7.07
2023-03-04T15:22:53.475Z,7.60
2023-03-04T15:25:20.609Z,6.72
2023-03-04T15:27:49.072Z,8.63
2023-03-04T15:30:24.092Z,7.32
2023-03-04T15:32:51.005Z,7.55
2023-03-04T15:35:19.084Z,8.73
2023-03-04T15:37:47.949Z,12.27
2023-03-04T15:40:26.186Z,8.00
2023-03-04T15:42:53.133Z,9.75
2023-03-04T15:45:28.992Z,8.55
2023-03-04T15:47:55.480Z,6.90
2023-03-04T15:50:22.189Z,7.50
2023-03-04T15:52:51.105Z,9.30
2023-03-04T15:55:20.431Z,7.20
2023-03-04T15:57:53.321Z,7.40
2023-03-04T16:00:20.521Z,7.30
2023-03-04T16:02:47.374Z,7.70
2023-03-04T16:05:15.638Z,7.05
2023-03-04T16:07:47.800Z,7.10
2023-03-04T16:10:29.623Z,7.20
2023-03-04T16:12:56.976Z,7.45
2023-03-04T16:15:30.091Z,6.82
2023-03-04T16:17:57.423Z,6.88
2023-03-04T16:20:28.527Z,7.53
2023-03-04T16:22:57.907Z,7.20
2023-03-04T16:25:25.611Z,6.65
2023-03-04T16:27:53.323Z,6.18
2023-03-04T16:30:22.533Z,7.57
2023-03-04T16:32:48.954Z,7.63
2023-03-04T16:35:17.021Z,8.07
2023-03-04T16:37:44.273Z,6.68
2023-03-04T16:40:17.632Z,7.72
2023-03-04T16:42:44.172Z,6.32
2023-03-04T16:45:17.077Z,6.38
2023-03-04T16:47:43.549Z,7.35
2023-03-04T16:50:17.146Z,6.07
2023-03-04T16:52:46.671Z,6.65
2023-03-04T16:55:20.239Z,6.57
2023-03-04T16:57:47.440Z,7.20
2023-03-04T17:00:17.146Z,6.15
2023-03-04T17:02:44.512Z,7.63
2023-03-04T17:05:20.435Z,7.38
2023-03-04T17:07:47.004Z,7.30
2023-03-04T17:10:15.142Z,6.43
2023-03-04T17:12:42.326Z,8.10
2023-03-04T17:15:14.409Z,7.43
2023-03-04T17:17:41.842Z,8.02
2023-03-04T17:20:10.105Z,6.80
2023-03-04T17:22:36.614Z,6.85
2023-03-04T17:25:04.324Z,7.10
2023-03-04T17:27:31.500Z,7.95
2023-03-04T17:29:57.950Z,6.38
2023-03-04T17:32:27.377Z,8.23
2023-03-04T17:34:55.643Z,6.22
2023-03-04T17:37:22.061Z,7.88
2023-03-04T17:39:48.508Z,7.30
2023-03-04T17:42:15.017Z,7.53
2023-03-04T17:44:42.087Z,8.25
2023-03-04T17:47:08.638Z,7.70
2023-03-04T17:49:35.076Z,7.35
2023-03-04T17:52:03.382Z,7.88
2023-03-04T17:54:29.818Z,8.18
2023-03-04T17:56:56.295Z,7.95
2023-03-04T17:59:22.796Z,8.18
2023-03-04T18:01:51.687Z,7.10
2023-03-04T18:04:20.144Z,6.72
2023-03-04T18:06:46.837Z,8.93
2023-03-04T18:09:13.564Z,8.77
2023-03-04T18:11:41.222Z,7.78
2023-03-04T18:14:13.706Z,8.32
2023-03-04T18:16:40.551Z,8.02
2023-03-04T18:19:09.252Z,7.53
2023-03-04T18:21:35.971Z,7.80
2023-03-04T18:24:02.629Z,7.32
2023-03-04T18:26:29.146Z,8.52
2023-03-04T18:28:56.129Z,7.55
2023-03-04T18:31:25.835Z,8.80
2023-03-04T18:33:52.720Z,6.65
2023-03-04T18:36:19.492Z,7.82
2023-03-04T18:38:46.096Z,8.27
2023-03-04T18:41:14.731Z,7.72
2023-03-04T18:43:41.646Z,7.60
2023-03-04T18:46:38.589Z,8.18
2023-03-04T18:49:08.656Z,8.43
2023-03-04T18:51:35.076Z,6.55
2023-03-04T18:54:01.432Z,7.65
2023-03-04T18:56:50.873Z,8.35
2023-03-04T18:59:27.851Z,8.15
2023-03-04T19:01:54.681Z,7.20
2023-03-04T19:04:23.595Z,7.28
2023-03-04T19:06:50.268Z,7.88
2023-03-04T19:09:16.850Z,6.47
2023-03-04T19:11:43.212Z,7.30
2023-03-04T19:14:11.537Z,7.85
2023-03-04T19:16:38.781Z,6.88
2023-03-04T19:19:05.484Z,7.63
2023-03-04T19:21:32.628Z,6.72
2023-03-04T19:23:58.997Z,7.85
2023-03-04T19:26:25.388Z,7.15
2023-03-04T19:28:51.788Z,6.38
2023-03-04T19:31:18.220Z,6.20
2023-03-04T19:33:44.566Z,6.25
2023-03-04T19:36:10.988Z,6.68
2023-03-04T19:38:37.555Z,7.05
2023-03-04T19:41:15.195Z,7.25
2023-03-04T19:43:42.215Z,6.60
2023-03-04T19:46:10.350Z,6.93
2023-03-04T19:48:38.729Z,6.72
2023-03-04T19:51:14.484Z,5.93
2023-03-04T19:53:40.936Z,6.72
2023-03-04T19:56:07.677Z,5.55
2023-03-04T19:58:34.057Z,6.32
2023-03-04T20:01:00.628Z,7.20
2023-03-04T20:03:27.309Z,9.50
2023-03-04T20:06:20.080Z,7.47
2023-03-04T20:08:46.471Z,7.20
2023-03-04T20:11:13.231Z,6.90
2023-03-04T20:13:39.680Z,6.47
2023-03-04T20:16:11.093Z,6.15
2023-03-04T20:18:38.781Z,7.07
2023-03-04T20:21:05.443Z,6.55
2023-03-04T20:23:31.927Z,5.75
2023-03-04T20:25:58.269Z,6.95
2023-03-04T20:28:25.650Z,6.35
2023-03-04T20:30:53.374Z,6.38
2023-03-04T20:33:20.386Z,6.13
2023-03-04T20:35:46.830Z,6.72
2023-03-04T20:38:14.288Z,6.32
2023-03-04T20:40:41.461Z,6.10
2023-03-04T20:43:07.878Z,5.47
2023-03-04T20:45:36.270Z,5.68
2023-03-04T20:48:03.700Z,5.85
2023-03-04T20:50:30.278Z,5.22
2023-03-04T20:52:56.725Z,6.05
2023-03-04T20:55:23.845Z,5.78
2023-03-04T20:57:50.391Z,5.25
2023-03-04T21:00:17.031Z,6.00
2023-03-04T21:02:43.437Z,6.55
2023-03-04T21:05:10.036Z,7.68
2023-03-04T21:07:36.448Z,6.78
2023-03-04T21:10:03.641Z,5.85
2023-03-04T21:12:30.170Z,5.75
2023-03-04T21:14:56.687Z,6.30
2023-03-04T21:17:24.593Z,6.18
2023-03-04T21:19:51.020Z,7.38
2023-03-04T21:22:19.502Z,6.35
2023-03-04T21:24:47.781Z,5.90
2023-03-04T21:27:16.478Z,5.35
2023-03-04T21:29:42.943Z,6.50
2023-03-04T21:32:35.532Z,6.28
2023-03-04T21:35:02.894Z,7.10
2023-03-04T21:37:29.256Z,7.03
2023-03-04T21:39:55.975Z,6.88
2023-03-04T21:42:22.529Z,5.88
2023-03-04T21:44:51.456Z,5.93
2023-03-04T21:47:19.589Z,7.10
2023-03-04T21:49:46.231Z,6.57
2023-03-04T21:52:13.071Z,6.55
2023-03-04T21:54:39.667Z,6.20
2023-03-04T21:57:06.237Z,6.05
2023-03-04T21:59:32.633Z,6.80
2023-03-04T22:01:59.104Z,6.75
2023-03-04T22:04:25.694Z,7.85
2023-03-04T22:06:52.255Z,7.18
2023-03-04T22:09:18.848Z,6.97
2023-03-04T22:11:45.359Z,6.70
2023-03-04T22:14:11.866Z,5.25
2023-03-04T22:16:48.803Z,7.18
2023-03-04T22:19:21.619Z,6.85
2023-03-04T22:21:48.046Z,6.68
2023-03-04T22:24:14.497Z,7.10
2023-03-04T22:26:40.997Z,6.63
2023-03-04T22:29:07.542Z,7.47
2023-03-04T22:31:36.672Z,6.57
2023-03-04T22:34:11.338Z,7.07
2023-03-04T22:36:40.879Z,7.30
2023-03-04T22:39:09.645Z,6.45
2023-03-04T22:41:36.404Z,7.05
2023-03-04T22:44:08.511Z,7.00
2023-03-04T22:46:38.104Z,6.47
2023-03-04T22:49:09.457Z,7.28
2023-03-04T22:54:02.707Z,6.75
2023-03-04T22:56:30.192Z,7.03
2023-03-04T22:58:56.622Z,7.63
2023-03-04T23:01:24.610Z,7.88
2023-03-04T23:03:51.057Z,7.90
2023-03-04T23:06:24.985Z,8.73
2023-03-04T23:08:52.424Z,8.48
2023-03-04T23:11:26.302Z,7.47
2023-03-04T23:13:53.652Z,8.68
2023-03-04T23:16:21.650Z,8.45
2023-03-04T23:18:49.117Z,8.80
2023-03-04T23:21:22.043Z,8.70
2023-03-04T23:23:49.385Z,8.07
2023-03-04T23:26:17.037Z,7.53
2023-03-04T23:28:44.161Z,9.23
2023-03-04T23:31:10.833Z,8.77
2023-03-04T23:33:37.244Z,7.97
2023-03-04T23:36:03.942Z,8.35
2023-03-04T23:38:30.285Z,7.78
2023-03-04T23:40:56.660Z,9.05
2023-03-04T23:43:23.104Z,8.45
2023-03-04T23:45:49.592Z,8.55
2023-03-04T23:48:16.040Z,8.27
2023-03-04T23:50:42.466Z,9.02
2023-03-04T23:53:08.822Z,8.32
2023-03-04T23:55:35.223Z,8.15
2023-03-04T23:58:01.573Z,9.18
